createdAt,value
2019-04-29T00:00:52.939Z,83.6670
2019-04-29T00:01:59.002Z,83.6670
2019-04-29T00:03:04.321Z,83.5632
2019-04-29T00:04:09.913Z,83.4229
2019-04-29T00:05:15.766Z,83.4229
2019-04-29T00:06:20.222Z,83.4229
2019-04-29T00:07:26.356Z,83.4229
2019-04-29T00:08:31.902Z,83.4229
2019-04-29T00:09:37.096Z,83.4229
2019-04-29T00:10:41.289Z,83.4229
2019-04-29T00:11:46.882Z,83.4229
2019-04-29T00:12:51.301Z,83.4229
2019-04-29T00:13:56.864Z,83.4229
2019-04-29T00:15:01.863Z,83.3801
2019-04-29T00:16:06.880Z,83.3801
2019-04-29T00:17:12.514Z,83.2764
2019-04-29T00:18:17.982Z,83.2764
2019-04-29T00:19:23.386Z,83.2764
2019-04-29T00:20:28.969Z,83.2764
2019-04-29T00:21:34.882Z,83.2764
2019-04-29T00:22:39.962Z,83.2764
2019-04-29T00:23:46.110Z,83.2764
2019-04-29T00:24:51.195Z,83.2764
2019-04-29T00:25:57.057Z,83.2764
2019-04-29T00:27:02.885Z,83.2764
2019-04-29T00:28:08.115Z,83.2764
2019-04-29T00:29:13.619Z,83.1360
2019-04-29T00:30:19.941Z,83.1360
2019-04-29T00:31:25.235Z,83.2397
2019-04-29T00:32:30.925Z,83.3435
2019-04-29T00:33:37.329Z,83.3435
2019-04-29T00:34:42.898Z,83.5510
2019-04-29T00:35:48.862Z,83.5510
2019-04-29T00:36:53.944Z,83.6548
2019-04-29T00:37:59.896Z,83.6548
2019-04-29T00:39:06.009Z,83.7585
2019-04-29T00:40:11.811Z,83.8623
2019-04-29T00:41:17.921Z,83.8623
2019-04-29T00:42:23.225Z,83.8623
2019-04-29T00:43:28.381Z,83.9661
2019-04-29T00:44:33.873Z,84.0698
2019-04-29T00:45:38.246Z,83.9661
2019-04-29T00:46:43.793Z,83.9661
2019-04-29T00:47:48.854Z,83.9661
2019-04-29T00:48:53.967Z,84.0698
2019-04-29T00:49:59.218Z,84.1736
2019-04-29T00:51:05.009Z,84.1736
2019-04-29T00:52:09.896Z,84.2773
2019-04-29T00:53:31.482Z,84.1736
2019-04-29T00:54:37.248Z,84.2773
2019-04-29T00:55:42.268Z,84.2773
2019-04-29T00:56:47.241Z,84.3811
2019-04-29T00:57:51.271Z,84.5886
2019-04-29T00:58:55.836Z,84.7961
2019-04-29T01:00:00.870Z,84.5459
2019-04-29T01:01:05.835Z,84.6497
2019-04-29T01:02:10.922Z,84.6497
2019-04-29T01:03:16.899Z,84.4421
2019-04-29T01:04:21.998Z,84.3384
2019-04-29T01:05:27.937Z,84.3384
2019-04-29T01:06:33.877Z,84.2346
2019-04-29T01:07:38.213Z,84.2346
2019-04-29T01:08:43.879Z,84.1309
2019-04-29T01:09:48.859Z,84.2346
2019-04-29T01:10:53.953Z,84.2346
2019-04-29T01:11:59.853Z,84.2346
2019-04-29T01:13:04.818Z,84.3811
2019-04-29T01:14:10.801Z,84.3811
2019-04-29T01:15:15.946Z,84.3811
2019-04-29T01:16:21.295Z,84.3811
2019-04-29T01:17:26.247Z,84.3811
2019-04-29T01:18:32.294Z,84.3811
2019-04-29T01:19:37.860Z,84.4849
2019-04-29T01:20:43.828Z,84.5886
2019-04-29T01:21:48.302Z,84.5886
2019-04-29T01:22:53.232Z,84.6924
2019-04-29T01:23:58.211Z,84.7961
2019-04-29T01:25:03.865Z,84.7961
2019-04-29T01:26:08.880Z,84.8999
2019-04-29T01:27:13.908Z,84.8999
2019-04-29T01:28:18.232Z,84.8999
2019-04-29T01:31:46.903Z,84.7961
2019-04-29T01:31:46.903Z,84.8999
2019-04-29T01:32:52.215Z,84.7961
2019-04-29T01:33:57.218Z,84.7961
2019-04-29T01:35:02.751Z,84.7961
2019-04-29T01:36:07.935Z,84.8999
2019-04-29T01:37:13.805Z,84.8999
2019-04-29T01:38:18.837Z,84.8999
2019-04-29T01:39:24.019Z,85.0037
2019-04-29T01:40:29.917Z,85.1074
2019-04-29T01:41:35.948Z,85.0037
2019-04-29T01:42:41.825Z,85.0037
2019-04-29T01:43:46.871Z,85.0037
2019-04-29T01:44:51.903Z,85.0037
2019-04-29T01:45:56.014Z,84.8572
2019-04-29T01:47:01.912Z,84.8572
2019-04-29T01:48:07.983Z,84.8572
2019-04-29T01:49:13.900Z,84.7534
2019-04-29T01:50:19.226Z,84.7534
2019-04-29T01:51:24.209Z,84.7534
2019-04-29T01:52:29.875Z,84.7534
2019-04-29T01:53:34.800Z,84.6497
2019-04-29T01:54:39.815Z,84.6497
2019-04-29T01:55:44.855Z,84.6497
2019-04-29T01:56:49.870Z,84.6497
2019-04-29T01:57:54.926Z,84.6497
2019-04-29T01:58:59.841Z,84.6497
2019-04-29T02:00:04.891Z,84.6497
2019-04-29T02:01:09.918Z,84.6497
2019-04-29T02:02:16.018Z,84.6130
2019-04-29T02:03:22.004Z,84.6130
2019-04-29T02:04:27.949Z,84.6130
2019-04-29T02:05:33.805Z,84.7168
2019-04-29T02:06:38.949Z,84.7168
2019-04-29T02:07:44.961Z,84.7168
2019-04-29T02:08:50.604Z,84.7168
2019-04-29T02:09:55.560Z,84.6130
2019-04-29T02:11:00.199Z,84.6130
2019-04-29T02:12:13.150Z,84.6130
2019-04-29T02:13:34.122Z,84.6130
2019-04-29T02:15:04.270Z,84.6130
2019-04-29T02:16:09.224Z,84.7168
2019-04-29T02:17:14.217Z,84.7168
2019-04-29T02:18:19.817Z,84.7168
2019-04-29T02:19:24.950Z,84.8206
2019-04-29T02:20:30.879Z,84.9243
2019-04-29T02:21:35.909Z,84.9243
2019-04-29T02:22:41.983Z,85.0281
2019-04-29T02:23:47.948Z,85.0281
2019-04-29T02:24:53.868Z,85.0281
2019-04-29T02:25:58.667Z,85.0281
2019-04-29T02:27:05.729Z,85.1318
2019-04-29T02:28:10.225Z,85.1318
2019-04-29T02:29:15.886Z,85.1318
2019-04-29T02:30:20.311Z,85.0281
2019-04-29T02:31:25.956Z,85.0281
2019-04-29T02:32:32.110Z,84.9243
2019-04-29T02:33:37.213Z,84.9243
2019-04-29T02:34:42.218Z,84.9243
2019-04-29T02:35:47.897Z,84.9243
2019-04-29T02:36:53.830Z,84.9243
2019-04-29T02:37:58.865Z,85.0281
2019-04-29T02:39:03.824Z,85.1318
2019-04-29T02:40:08.905Z,85.1318
2019-04-29T02:41:14.907Z,85.1318
2019-04-29T02:42:20.899Z,85.2356
2019-04-29T02:43:26.945Z,85.2356
2019-04-29T02:44:32.223Z,85.2356
2019-04-29T02:45:38.256Z,85.2356
2019-04-29T02:46:43.809Z,85.2356
2019-04-29T02:47:48.947Z,85.2356
2019-04-29T02:48:55.082Z,85.3394
2019-04-29T02:50:01.002Z,85.3394
2019-04-29T02:51:06.222Z,85.3394
2019-04-29T02:52:11.230Z,85.3394
2019-04-29T02:53:16.765Z,85.3394
2019-04-29T02:54:21.892Z,85.3394
2019-04-29T02:55:26.894Z,85.4431
2019-04-29T02:56:32.966Z,85.4431
2019-04-29T02:57:38.928Z,85.4431
2019-04-29T02:58:44.235Z,85.5469
2019-04-29T02:59:49.949Z,85.5469
2019-04-29T03:00:56.134Z,85.6506
2019-04-29T03:02:29.735Z,85.6506
2019-04-29T03:03:34.800Z,85.6506
2019-04-29T03:04:39.749Z,85.6506
2019-04-29T03:05:44.820Z,85.6873
2019-04-29T03:06:49.870Z,85.6873
2019-04-29T03:07:54.959Z,85.6873
2019-04-29T03:09:00.891Z,85.6873
2019-04-29T03:10:06.226Z,85.6873
2019-04-29T03:11:11.867Z,85.5835
2019-04-29T03:12:17.200Z,85.5835
2019-04-29T03:13:22.968Z,85.6873
2019-04-29T03:14:28.846Z,85.6873
2019-04-29T03:15:33.910Z,85.7910
2019-04-29T03:16:38.887Z,85.7910
2019-04-29T03:17:45.016Z,85.8948
2019-04-29T03:18:51.147Z,85.8948
2019-04-29T03:19:56.995Z,85.8948
2019-04-29T03:21:01.886Z,85.9985
2019-04-29T03:22:06.258Z,85.9985
2019-04-29T03:23:11.897Z,86.1023
2019-04-29T03:24:17.117Z,86.1023
2019-04-29T03:25:22.877Z,86.1023
2019-04-29T03:26:26.874Z,86.1023
2019-04-29T03:27:32.191Z,86.1023
2019-04-29T03:28:37.851Z,86.1023
2019-04-29T03:29:42.446Z,86.1023
2019-04-29T03:30:47.881Z,85.9619
2019-04-29T03:31:52.967Z,85.9619
2019-04-29T03:32:58.892Z,86.0657
2019-04-29T03:34:04.924Z,86.0657
2019-04-29T03:35:09.939Z,86.0657
2019-04-29T03:36:15.969Z,86.1694
2019-04-29T03:37:21.749Z,86.1694
2019-04-29T03:38:26.206Z,86.0657
2019-04-29T03:39:32.310Z,86.0657
2019-04-29T03:40:37.834Z,85.9619
2019-04-29T03:41:42.858Z,85.8582
2019-04-29T03:42:47.896Z,85.8582
2019-04-29T03:43:53.879Z,85.8582
2019-04-29T03:44:58.275Z,85.8582
2019-04-29T03:46:03.811Z,85.8582
2019-04-29T03:47:08.211Z,85.8582
2019-04-29T03:48:13.867Z,85.7544
2019-04-29T03:49:19.045Z,85.7544
2019-04-29T03:50:29.046Z,85.7544
2019-04-29T03:51:34.899Z,85.7544
2019-04-29T03:52:40.847Z,85.6506
2019-04-29T03:53:46.104Z,85.6506
2019-04-29T03:54:51.872Z,85.6506
2019-04-29T03:55:56.222Z,85.5469
2019-04-29T03:57:01.819Z,85.4797
2019-04-29T03:58:06.819Z,85.3760
2019-04-29T03:59:11.906Z,85.2722
2019-04-29T04:00:17.862Z,85.1685
2019-04-29T04:01:22.234Z,85.1685
2019-04-29T04:02:27.960Z,85.2722
2019-04-29T04:03:34.064Z,85.3760
2019-04-29T04:04:39.914Z,85.4797
2019-04-29T04:05:45.857Z,85.4797
2019-04-29T04:06:51.432Z,85.5835
2019-04-29T04:07:56.887Z,85.5835
2019-04-29T04:09:06.005Z,85.5835
2019-04-29T04:10:11.892Z,85.5835
2019-04-29T04:11:17.527Z,85.5835
2019-04-29T04:12:22.821Z,85.7300
2019-04-29T04:13:27.209Z,85.6873
2019-04-29T04:14:32.921Z,85.7910
2019-04-29T04:15:39.382Z,85.8948
2019-04-29T04:16:44.971Z,85.9985
2019-04-29T04:17:50.950Z,86.1023
2019-04-29T04:18:56.965Z,86.3098
2019-04-29T04:20:30.518Z,86.4136
2019-04-29T04:21:36.883Z,86.5173
2019-04-29T04:22:42.227Z,86.5173
2019-04-29T04:23:47.809Z,86.5173
2019-04-29T04:24:51.870Z,86.6211
2019-04-29T04:25:56.885Z,86.6211
2019-04-29T04:27:02.861Z,86.7249
2019-04-29T04:28:07.942Z,86.7249
2019-04-29T04:29:13.826Z,86.7249
2019-04-29T04:30:41.925Z,86.6211
2019-04-29T04:31:47.823Z,86.5784
2019-04-29T04:32:52.973Z,86.4746
2019-04-29T04:33:58.955Z,86.4746
2019-04-29T04:35:04.225Z,86.4746
2019-04-29T04:36:09.533Z,86.3708
2019-04-29T04:37:14.861Z,86.3708
2019-04-29T04:38:19.219Z,86.2671
2019-04-29T04:39:24.913Z,86.2671
2019-04-29T04:40:30.833Z,86.2671
2019-04-29T04:41:35.940Z,86.2671
2019-04-29T04:42:42.019Z,86.1694
2019-04-29T04:43:50.670Z,86.1023
2019-04-29T04:44:55.934Z,85.9985
2019-04-29T04:46:01.854Z,85.7910
2019-04-29T04:47:06.878Z,85.4797
2019-04-29T04:48:12.905Z,84.9609
2019-04-29T04:49:18.914Z,84.5886
2019-04-29T04:50:25.547Z,84.1736
2019-04-29T04:51:31.233Z,83.6548
2019-04-29T04:52:36.901Z,83.2764
2019-04-29T04:53:42.863Z,83.3801
2019-04-29T04:54:48.011Z,83.5876
2019-04-29T04:55:53.910Z,84.0027
2019-04-29T04:56:59.859Z,84.4177
2019-04-29T04:58:04.951Z,84.7290
2019-04-29T04:59:10.952Z,85.1440
2019-04-29T05:00:20.031Z,85.5591
2019-04-29T05:01:26.159Z,85.9741
2019-04-29T05:02:31.192Z,86.2854
2019-04-29T05:03:36.951Z,86.5967
2019-04-29T05:04:41.223Z,86.8042
2019-04-29T05:05:47.184Z,87.0117
2019-04-29T05:06:51.212Z,87.0728
2019-04-29T05:07:56.296Z,87.1765
2019-04-29T05:09:01.208Z,87.2803
2019-04-29T05:10:06.793Z,87.2803
2019-04-29T05:11:11.926Z,87.3474
2019-04-29T05:12:17.832Z,87.4512
2019-04-29T05:13:28.168Z,87.5549
2019-04-29T05:14:32.928Z,87.4512
2019-04-29T05:15:37.900Z,87.3047
2019-04-29T05:16:43.875Z,87.4084
2019-04-29T05:17:52.870Z,87.4084
2019-04-29T05:18:58.913Z,87.3047
2019-04-29T05:20:04.990Z,87.3718
2019-04-29T05:21:10.196Z,87.2681
2019-04-29T05:22:17.039Z,87.1643
2019-04-29T05:23:23.140Z,87.0605
2019-04-29T05:24:28.197Z,86.9568
2019-04-29T05:25:34.287Z,86.9568
2019-04-29T05:26:39.929Z,86.7493
2019-04-29T05:27:45.882Z,86.6455
2019-04-29T05:28:50.936Z,86.6455
2019-04-29T05:29:56.225Z,86.6455
2019-04-29T05:31:02.962Z,86.6455
2019-04-29T05:32:08.858Z,86.7493
2019-04-29T05:33:14.766Z,86.8530
2019-04-29T05:34:20.197Z,86.8530
2019-04-29T05:35:26.433Z,86.8530
2019-04-29T05:36:34.056Z,86.9141
2019-04-29T05:37:41.247Z,87.0178
2019-04-29T05:38:47.004Z,87.1216
2019-04-29T05:39:52.813Z,87.1216
2019-04-29T05:40:57.938Z,87.1216
2019-04-29T05:42:07.135Z,87.1216
2019-04-29T05:43:13.899Z,87.1826
2019-04-29T05:44:19.898Z,87.1826
2019-04-29T05:45:25.957Z,87.0789
2019-04-29T05:46:31.913Z,86.9385
2019-04-29T05:47:37.903Z,86.8347
2019-04-29T05:48:43.832Z,86.5906
2019-04-29T05:49:48.257Z,86.3831
2019-04-29T05:51:07.912Z,86.1755
2019-04-29T05:52:13.832Z,86.0291
2019-04-29T05:53:19.121Z,86.1328
2019-04-29T05:54:26.950Z,86.2000
2019-04-29T05:55:34.213Z,85.8887
2019-04-29T05:56:39.856Z,85.6812
2019-04-29T05:57:44.222Z,85.3699
2019-04-29T05:58:49.905Z,85.1257
2019-04-29T05:59:54.270Z,84.9182
2019-04-29T06:00:59.890Z,84.8145
2019-04-29T06:02:05.851Z,84.7168
2019-04-29T06:03:11.119Z,84.6741
2019-04-29T06:04:18.232Z,84.7778
2019-04-29T06:05:24.002Z,84.8816
2019-04-29T06:06:30.063Z,84.7778
2019-04-29T06:07:35.938Z,84.6375
2019-04-29T06:08:41.739Z,84.5337
2019-04-29T06:09:47.172Z,84.2896
2019-04-29T06:10:53.039Z,84.1858
2019-04-29T06:11:59.109Z,83.9417
2019-04-29T06:13:07.397Z,83.5266
2019-04-29T06:14:12.211Z,82.9712
2019-04-29T06:15:17.925Z,82.2144
2019-04-29T06:16:23.221Z,81.6650
2019-04-29T06:17:28.884Z,81.1096
2019-04-29T06:18:34.926Z,80.4565
2019-04-29T06:19:41.095Z,80.0110
2019-04-29T06:20:45.205Z,79.5593
2019-04-29T06:21:51.112Z,79.4556
2019-04-29T06:22:57.006Z,79.4556
2019-04-29T06:24:04.200Z,79.5959
2019-04-29T06:25:12.059Z,79.0833
2019-04-29T06:26:17.948Z,79.4312
2019-04-29T06:27:23.881Z,79.4312
2019-04-29T06:28:30.083Z,79.6692
2019-04-29T06:29:35.952Z,79.4678
2019-04-29T06:30:45.173Z,80.1208
2019-04-29T06:31:51.973Z,80.6335
2019-04-29T06:32:57.200Z,81.0486
2019-04-29T06:34:05.347Z,81.3538
2019-04-29T06:35:14.159Z,81.3538
2019-04-29T06:36:19.820Z,81.5247
2019-04-29T06:37:24.974Z,81.5247
2019-04-29T06:38:30.806Z,81.3171
2019-04-29T06:39:36.637Z,81.3843
2019-04-29T06:40:41.112Z,81.4819
2019-04-29T06:41:51.154Z,81.5857
2019-04-29T06:42:56.954Z,81.5491
2019-04-29T06:44:06.259Z,81.5491
2019-04-29T06:45:13.090Z,81.3416
2019-04-29T06:46:18.722Z,80.1086
2019-04-29T06:47:24.215Z,79.4312
2019-04-29T06:48:29.473Z,80.0476
2019-04-29T06:49:34.941Z,79.3274
2019-04-29T06:50:40.223Z,79.1199
2019-04-29T06:52:06.238Z,79.7729
2019-04-29T06:53:16.378Z,80.3528
2019-04-29T06:54:30.095Z,80.7678
2019-04-29T06:55:36.191Z,80.7678
2019-04-29T06:56:41.212Z,79.8401
2019-04-29T06:57:46.223Z,78.7109
2019-04-29T06:58:51.207Z,78.9185
2019-04-29T06:59:57.754Z,79.5349
2019-04-29T07:01:03.148Z,80.1514
2019-04-29T07:02:09.534Z,80.6274
2019-04-29T07:03:21.031Z,80.9326
2019-04-29T07:04:30.605Z,81.1401
2019-04-29T07:05:40.742Z,81.3049
2019-04-29T07:06:57.322Z,81.4758
2019-04-29T07:07:59.980Z,81.2683
2019-04-29T07:09:05.209Z,80.9204
2019-04-29T07:10:11.535Z,80.8838
2019-04-29T07:11:17.017Z,80.8838
2019-04-29T07:12:22.843Z,80.8472
2019-04-29T07:13:29.198Z,80.1331
2019-04-29T07:14:38.350Z,79.9255
2019-04-29T07:15:43.407Z,79.9255
2019-04-29T07:17:04.995Z,79.8218
2019-04-29T07:18:10.993Z,79.8889
2019-04-29T07:19:16.791Z,79.7852
2019-04-29T07:20:22.031Z,79.2053
2019-04-29T07:21:27.584Z,79.2053
2019-04-29T07:22:33.329Z,79.8218
2019-04-29T07:23:38.211Z,79.8889
2019-04-29T07:24:45.688Z,80.2979
2019-04-29T07:25:51.027Z,80.2979
2019-04-29T07:27:07.422Z,79.5410
2019-04-29T07:29:32.942Z,78.0396
2019-04-29T07:31:00.437Z,76.9043
2019-04-29T07:31:49.487Z,75.2686
2019-04-29T07:34:09.196Z,71.0205
2019-04-29T07:35:14.229Z,69.7632
2019-04-29T07:36:22.740Z,70.5811
2019-04-29T07:37:29.768Z,70.9534
2019-04-29T07:38:46.432Z,71.7712
2019-04-29T07:39:53.298Z,72.5830
2019-04-29T07:41:03.466Z,71.2952
2019-04-29T07:42:10.147Z,68.4753
2019-04-29T07:43:16.816Z,66.7725
2019-04-29T07:44:23.395Z,68.3350
2019-04-29T07:45:29.185Z,70.0989
2019-04-29T07:46:55.465Z,71.0510
2019-04-29T07:47:56.330Z,70.6787
2019-04-29T07:49:08.169Z,72.6501
2019-04-29T07:50:13.330Z,73.6084
2019-04-29T07:51:19.466Z,73.8464
2019-04-29T07:52:29.605Z,74.3530
2019-04-29T07:53:44.493Z,75.3113
2019-04-29T07:54:48.263Z,76.0254
2019-04-29T07:55:57.419Z,76.5381
2019-04-29T07:57:02.881Z,76.4709
2019-04-29T07:58:12.964Z,76.9836
2019-04-29T07:59:19.054Z,77.6001
2019-04-29T08:00:25.096Z,77.0874
2019-04-29T08:01:31.249Z,76.5747
2019-04-29T08:02:36.912Z,77.0874
2019-04-29T08:03:42.920Z,77.8381
2019-04-29T08:04:48.218Z,78.3508
2019-04-29T08:05:53.240Z,78.7598
2019-04-29T08:06:59.168Z,78.9673
2019-04-29T08:08:05.118Z,78.4546
2019-04-29T08:09:11.663Z,78.2471
2019-04-29T08:10:23.702Z,78.6987
2019-04-29T08:11:26.352Z,79.1077
2019-04-29T08:12:31.891Z,79.5166
2019-04-29T08:13:36.269Z,79.6204
2019-04-29T08:14:42.310Z,79.7180
2019-04-29T08:15:48.359Z,79.4128
2019-04-29T08:16:54.163Z,79.3091
2019-04-29T08:18:06.480Z,79.5166
2019-04-29T08:19:24.726Z,79.6204
2019-04-29T08:20:35.435Z,79.2725
2019-04-29T08:21:45.557Z,79.0710
2019-04-29T08:22:53.770Z,78.6621
2019-04-29T08:23:58.230Z,77.1240
2019-04-29T08:25:04.859Z,76.0620
2019-04-29T08:26:09.233Z,76.2695
2019-04-29T08:27:14.199Z,76.7822
2019-04-29T08:28:19.218Z,76.9470
2019-04-29T08:29:25.049Z,77.1545
2019-04-29T08:30:30.235Z,77.1545
2019-04-29T08:31:38.654Z,77.0142
2019-04-29T08:34:03.743Z,77.0508
2019-04-29T08:36:32.417Z,77.3193
2019-04-29T08:37:38.603Z,77.1179
2019-04-29T08:38:44.116Z,76.3000
2019-04-29T08:40:18.814Z,75.5859
2019-04-29T08:41:29.620Z,75.8911
2019-04-29T08:42:37.355Z,76.1963
2019-04-29T08:43:46.211Z,75.9949
2019-04-29T08:44:54.768Z,75.9583
2019-04-29T08:46:03.296Z,75.6531
2019-04-29T08:47:09.239Z,75.4089
2019-04-29T08:48:14.214Z,74.6277
2019-04-29T08:50:32.200Z,73.0286
2019-04-29T08:51:37.244Z,71.0876
2019-04-29T08:52:43.205Z,70.9534
2019-04-29T08:53:49.660Z,70.3430
2019-04-29T08:54:55.312Z,70.1721
2019-04-29T08:56:05.556Z,68.1030
2019-04-29T08:57:17.085Z,67.5964
2019-04-29T08:58:22.218Z,66.4124
2019-04-29T08:59:27.228Z,65.2649
2019-04-29T09:00:33.176Z,64.6667
2019-04-29T09:01:38.201Z,64.2395
2019-04-29T09:02:47.155Z,63.0371
2019-04-29T09:03:57.942Z,61.1877
2019-04-29T09:05:06.781Z,59.7412
2019-04-29T09:06:16.275Z,60.0159
2019-04-29T09:07:22.282Z,58.9478
2019-04-29T09:08:32.932Z,56.1157
2019-04-29T09:09:41.530Z,55.0781
2019-04-29T09:10:50.022Z,54.1748
2019-04-29T09:11:57.106Z,52.9419
2019-04-29T09:13:02.246Z,52.5452
2019-04-29T09:14:08.538Z,52.9419
2019-04-29T09:15:17.043Z,53.7964
2019-04-29T09:16:23.256Z,54.5532
2019-04-29T09:17:29.685Z,53.1982
2019-04-29T09:18:34.228Z,51.0315
2019-04-29T09:20:57.958Z,51.8372
2019-04-29T09:23:26.106Z,54.1321
2019-04-29T09:27:09.629Z,55.5237
2019-04-29T09:28:18.320Z,55.5481
2019-04-29T09:29:27.214Z,56.9885
2019-04-29T09:30:32.208Z,58.8135
2019-04-29T09:31:37.218Z,59.2468
2019-04-29T09:32:41.256Z,60.4919
2019-04-29T09:33:50.970Z,60.7910
2019-04-29T09:35:02.540Z,59.8083
2019-04-29T09:36:09.638Z,56.9946
2019-04-29T09:37:32.230Z,57.0251
2019-04-29T09:38:38.451Z,58.3679
2019-04-29T09:39:45.551Z,59.0088
2019-04-29T09:40:54.607Z,59.9487
2019-04-29T09:43:21.466Z,60.6140
2019-04-29T09:44:30.580Z,61.9385
2019-04-29T09:45:39.450Z,62.8235
2019-04-29T09:46:44.263Z,63.1287
2019-04-29T09:48:06.142Z,62.9272
2019-04-29T09:49:12.229Z,62.5916
2019-04-29T09:51:47.241Z,62.6648
2019-04-29T09:52:52.221Z,61.8958
2019-04-29T09:57:49.880Z,58.3740
2019-04-29T09:58:56.296Z,57.9407
2019-04-29T10:00:05.467Z,57.5073
2019-04-29T10:01:13.878Z,57.2083
2019-04-29T10:03:40.291Z,57.8125
2019-04-29T10:04:56.802Z,57.7087
2019-04-29T10:06:02.225Z,54.3091
2019-04-29T10:07:08.205Z,55.3162
2019-04-29T10:09:37.969Z,57.7942
2019-04-29T10:10:43.236Z,58.6304
2019-04-29T10:11:50.218Z,58.9294
2019-04-29T10:14:15.243Z,59.1614
2019-04-29T10:15:21.230Z,58.9600
2019-04-29T10:16:26.381Z,59.3933
2019-04-29T10:18:48.242Z,59.6252
2019-04-29T10:21:10.240Z,59.0454
2019-04-29T10:23:31.228Z,59.4788
2019-04-29T10:24:36.631Z,59.6802
2019-04-29T10:25:44.360Z,59.9548
2019-04-29T10:26:52.999Z,57.5684
2019-04-29T10:27:58.242Z,57.9468
2019-04-29T10:29:13.722Z,54.2053
2019-04-29T10:30:26.770Z,55.1147
2019-04-29T10:32:48.860Z,56.8115
2019-04-29T10:33:54.806Z,56.1768
2019-04-29T10:35:08.063Z,56.2744
2019-04-29T10:37:33.267Z,52.7405
2019-04-29T10:40:10.960Z,52.5391
2019-04-29T10:41:19.091Z,53.0701
2019-04-29T10:42:24.249Z,53.4729
2019-04-29T10:44:44.279Z,53.4973
2019-04-29T10:45:51.110Z,54.9133
2019-04-29T10:46:56.237Z,55.1147
2019-04-29T10:48:02.757Z,56.6345
2019-04-29T10:50:23.903Z,56.9092
2019-04-29T10:51:29.230Z,57.6172
2019-04-29T10:52:38.672Z,55.5969
2019-04-29T10:53:46.718Z,53.0701
2019-04-29T10:54:56.743Z,53.7781
2019-04-29T10:56:05.559Z,55.3955
2019-04-29T10:57:14.744Z,54.6875
2019-04-29T10:58:28.144Z,53.0457
2019-04-29T10:59:36.093Z,52.4353
2019-04-29T11:00:43.207Z,50.7202
2019-04-29T11:02:01.050Z,51.7578
2019-04-29T11:03:02.207Z,52.5635
2019-04-29T11:04:10.284Z,53.9795
2019-04-29T11:05:14.990Z,54.3823
2019-04-29T11:06:21.057Z,55.2917
2019-04-29T11:07:27.808Z,55.5725
2019-04-29T11:08:33.769Z,54.1565
2019-04-29T11:09:46.233Z,54.7607
2019-04-29T11:11:01.884Z,55.4688
2019-04-29T11:12:04.215Z,55.3650
2019-04-29T11:13:11.056Z,55.4688
2019-04-29T11:14:16.221Z,55.8716
2019-04-29T11:15:21.225Z,53.2471
2019-04-29T11:16:27.676Z,54.0527
2019-04-29T11:17:39.812Z,53.1433
2019-04-29T11:18:47.584Z,53.5461
2019-04-29T11:19:52.938Z,53.8513
2019-04-29T11:20:58.219Z,53.7231
2019-04-29T11:22:04.745Z,53.7231
2019-04-29T11:23:16.650Z,53.2959
2019-04-29T11:24:20.856Z,53.0945
2019-04-29T11:25:26.221Z,53.3997
2019-04-29T11:26:34.665Z,53.6743
2019-04-29T11:27:40.884Z,53.7476
2019-04-29T11:28:51.032Z,53.2227
2019-04-29T11:29:58.601Z,53.3997
2019-04-29T11:31:14.389Z,52.6672
2019-04-29T11:32:29.079Z,52.8442
2019-04-29T11:33:40.164Z,51.2085
2019-04-29T11:34:48.596Z,50.1770
2019-04-29T11:35:59.119Z,49.0723
2019-04-29T11:37:07.273Z,47.8882
2019-04-29T11:38:12.940Z,48.1934
2019-04-29T11:39:18.395Z,48.7915
2019-04-29T11:40:26.022Z,48.0103
2019-04-29T11:41:35.223Z,49.7253
2019-04-29T11:42:41.907Z,49.2432
2019-04-29T11:43:50.988Z,49.6460
2019-04-29T11:45:01.828Z,48.8647
2019-04-29T11:46:10.011Z,49.2676
2019-04-29T11:47:21.035Z,49.6948
2019-04-29T11:48:30.240Z,50.5249
2019-04-29T11:49:36.353Z,51.5320
2019-04-29T11:50:45.206Z,52.3621
2019-04-29T11:52:08.656Z,51.8616
2019-04-29T11:53:02.125Z,53.1982
2019-04-29T11:54:12.256Z,53.6987
2019-04-29T11:55:20.203Z,53.9307
2019-04-29T11:56:25.648Z,53.7537
2019-04-29T11:57:40.789Z,53.8513
2019-04-29T11:58:41.459Z,53.9795
2019-04-29T11:59:49.332Z,52.2827
2019-04-29T12:00:55.543Z,52.4109
2019-04-29T12:02:01.395Z,53.4485
2019-04-29T12:03:07.129Z,54.9927
2019-04-29T12:04:12.223Z,55.9021
2019-04-29T12:05:17.874Z,56.8420
2019-04-29T12:06:23.554Z,57.4524
2019-04-29T12:07:32.430Z,56.2622
2019-04-29T12:08:38.496Z,56.7932
2019-04-29T12:09:43.748Z,57.5012
2019-04-29T12:11:06.763Z,58.0139
2019-04-29T12:12:08.060Z,58.6182
2019-04-29T12:13:13.213Z,56.6956
2019-04-29T12:14:19.144Z,56.6956
2019-04-29T12:15:25.099Z,58.4167
2019-04-29T12:16:30.215Z,57.2266
2019-04-29T12:17:36.240Z,58.6487
2019-04-29T12:18:41.367Z,57.8613
2019-04-29T12:19:47.214Z,58.3679
2019-04-29T12:20:54.003Z,58.1665
2019-04-29T12:22:00.455Z,59.0088
2019-04-29T12:23:05.834Z,60.1257
2019-04-29T12:24:10.230Z,60.9680
2019-04-29T12:25:15.195Z,60.5591
2019-04-29T12:26:20.267Z,58.6304
2019-04-29T12:27:25.206Z,58.9355
2019-04-29T12:28:32.943Z,59.4666
2019-04-29T12:29:42.229Z,58.4534
2019-04-29T12:32:07.731Z,58.8562
2019-04-29T12:33:14.825Z,59.5703
2019-04-29T12:34:21.117Z,59.7717
2019-04-29T12:35:26.323Z,59.1614
2019-04-29T12:36:35.065Z,59.8755
2019-04-29T12:37:42.867Z,60.4858
2019-04-29T12:38:49.598Z,61.2976
2019-04-29T12:39:59.711Z,61.2244
2019-04-29T12:41:04.216Z,59.6008
2019-04-29T12:42:14.039Z,58.4778
2019-04-29T12:43:19.236Z,58.5083
2019-04-29T12:44:34.670Z,59.1187
2019-04-29T12:45:34.284Z,59.8328
2019-04-29T12:46:40.464Z,60.2661
2019-04-29T12:47:45.262Z,58.5327
2019-04-29T12:48:50.978Z,59.1736
2019-04-29T12:49:57.895Z,59.6802
2019-04-29T12:51:04.145Z,60.6018
2019-04-29T12:52:11.690Z,60.9314
2019-04-29T12:53:17.290Z,61.9507
2019-04-29T12:54:22.943Z,61.0352
2019-04-29T12:55:43.702Z,60.9619
2019-04-29T12:56:42.951Z,61.2671
2019-04-29T12:57:51.584Z,61.7798
2019-04-29T12:58:59.689Z,62.4207
2019-04-29T13:00:09.098Z,62.5183
2019-04-29T13:01:15.346Z,62.7258
2019-04-29T13:02:24.461Z,62.8235
2019-04-29T13:03:36.546Z,63.5376
2019-04-29T13:04:45.060Z,64.0808
2019-04-29T13:05:58.281Z,63.8733
2019-04-29T13:07:06.922Z,64.3860
2019-04-29T13:08:12.930Z,65.1001
2019-04-29T13:09:18.767Z,63.8733
2019-04-29T13:10:24.724Z,64.3860
2019-04-29T13:11:45.438Z,63.5681
2019-04-29T13:12:44.236Z,63.1897
2019-04-29T13:13:55.479Z,61.2488
2019-04-29T13:15:02.934Z,62.6831
2019-04-29T13:16:08.914Z,63.1897
2019-04-29T13:17:15.195Z,64.4165
2019-04-29T13:18:23.491Z,65.8447
2019-04-29T13:19:31.103Z,65.0269
2019-04-29T13:20:37.094Z,65.8447
2019-04-29T13:21:44.657Z,65.9485
2019-04-29T13:22:51.900Z,65.3381
2019-04-29T13:24:12.557Z,62.8845
2019-04-29T13:25:08.267Z,62.4756
2019-04-29T13:26:26.998Z,62.5793
2019-04-29T13:27:29.055Z,62.4756
2019-04-29T13:28:34.769Z,61.8652
2019-04-29T13:29:44.969Z,61.9690
2019-04-29T13:30:51.552Z,62.3718
2019-04-29T13:32:01.911Z,63.7329
2019-04-29T13:33:16.645Z,62.9883
2019-04-29T13:34:24.608Z,63.4949
2019-04-29T13:35:31.440Z,62.6099
2019-04-29T13:36:38.078Z,61.8958
2019-04-29T13:37:44.913Z,61.8958
2019-04-29T13:38:51.236Z,62.0972
2019-04-29T13:39:58.219Z,63.4277
2019-04-29T13:41:13.362Z,63.8062
2019-04-29T13:42:15.736Z,63.8062
2019-04-29T13:43:20.657Z,64.9292
2019-04-29T13:44:32.522Z,65.3381
2019-04-29T13:45:39.514Z,65.0269
2019-04-29T13:46:46.196Z,63.7756
2019-04-29T13:47:56.168Z,63.5681
2019-04-29T13:49:12.918Z,62.6526
2019-04-29T13:50:23.150Z,62.9578
2019-04-29T13:51:35.951Z,62.0422
2019-04-29T13:52:37.505Z,62.9578
2019-04-29T13:53:42.527Z,63.0615
2019-04-29T13:54:47.242Z,63.0310
2019-04-29T13:56:10.454Z,62.1094
2019-04-29T13:57:08.802Z,62.1094
2019-04-29T13:58:14.220Z,62.4939
2019-04-29T13:59:20.163Z,63.3057
2019-04-29T14:00:26.348Z,63.0737
2019-04-29T14:01:33.380Z,62.6648
2019-04-29T14:02:39.902Z,61.8225
2019-04-29T14:03:49.507Z,61.3098
2019-04-29T14:04:56.101Z,60.9070